Flight Track Log - Related Links

Times and Time Zones

All times are in EDT time to prevent confusion due to time zone crossing. See the SWA2612 flight status page for this flight to view local times or setup timezone preferences in your user account.

Time Position Orientation Groundspeed Altitude Reporting Facility
EDT Latitude Longitude Course Direction KTS MPH feet Rate Location/Type
Thu 01:49:42 AM 33.4333 -112.0333 220° Southwest 154 177 2,500  Level Phoenix TRACON
Thu 01:50:00 AM 33.4167 -112.0500 220° Southwest 167 192 3,000 2,462 Climbing Phoenix TRACON
Thu 01:51:00 AM 33.4000 -112.1167 253° West 211 243 5,700 3,045 Climbing Phoenix TRACON
Thu 01:52:14 AM 33.4114 -112.2086 278° West 256 295 9,800 3,224 Climbing Albuquerque Center
Thu 01:53:14 AM 33.4150 -112.3094 272° West 292 336 12,900 3,818 Climbing Albuquerque Center
Thu 01:54:15 AM 33.4269 -112.4494 276° West 337 388 17,500 3,868 Climbing Albuquerque Center
Thu 01:55:15 AM 33.4361 -112.5717 275° West 357 411 20,700 2,777 Climbing Albuquerque Center
Thu 01:56:16 AM 33.4436 -112.6803 275° West 377 434 23,100 2,678 Climbing Albuquerque Center
Thu 01:57:16 AM 33.4528 -112.8114 275° West 392 451 26,100 2,727 Climbing Albuquerque Center
Thu 01:58:17 AM 33.4758 -112.9414 282° West 401 461 28,600 2,459 Climbing Albuquerque Center
Thu 01:59:18 AM 33.5064 -113.0986 283° West 404 465 31,100 2,380 Climbing Albuquerque Center
Thu 02:00:18 AM 33.5317 -113.2325 283° West 412 474 33,400 2,200 Climbing Albuquerque Center
Thu 02:01:18 AM 33.5564 -113.3647 283° West 410 472 35,500 1,785 Climbing Albuquerque Center
Thu 02:02:19 AM 33.5875 -113.4947 286° West 408 470 37,000 1,438 Climbing Albuquerque Center
Thu 02:03:19 AM 33.6211 -113.6256 287° West 411 473 38,400 1,350 Climbing Albuquerque Center
Thu 02:04:19 AM 33.6525 -113.7564 286° West 411 473 39,700 793 Climbing Albuquerque Center
Thu 02:05:20 AM 33.6856 -113.8853 287° West 408 470 40,000 149 Climbing Albuquerque Center
Thu 02:06:20 AM 33.7317 -114.0114 294° West 406 467 40,000  Level Albuquerque Center
Thu 02:07:20 AM 33.7792 -114.1369 295° West 408 470 40,000  Level Albuquerque Center
Thu 02:08:21 AM 33.8286 -114.2622 295° West 412 474 40,000  Level Albuquerque Center
Thu 02:09:21 AM 33.8731 -114.3875 293° West 411 473 40,000  Level Albuquerque Center
Thu 02:09:51 AM 33.8953 -114.4461 295° West 409 471 40,000  Level Los Angeles Center
Thu 02:10:51 AM 33.9392 -114.5717 293° West 408 470 40,000  Level Los Angeles Center
Thu 02:11:52 AM 33.9833 -114.6981 293° West 410 472 40,000  Level Los Angeles Center
Thu 02:12:53 AM 34.0286 -114.8261 293° West 415 478 40,000  Level Los Angeles Center
Thu 02:13:54 AM 34.0744 -114.9542 293° West 417 480 40,000  Level Los Angeles Center
Thu 02:14:54 AM 34.1286 -115.1086 293° West 419 482 40,000  Level Los Angeles Center
Thu 02:15:55 AM 34.1739 -115.2378 293° West 420 483 40,000  Level Los Angeles Center
Thu 02:16:56 AM 34.2183 -115.3692 292° West 423 487 40,000  Level Los Angeles Center
Thu 02:17:57 AM 34.2639 -115.4986 293° West 421 484 40,000  Level Los Angeles Center
Thu 02:18:57 AM 34.3083 -115.6297 292° West 422 486 40,000  Level Los Angeles Center
Thu 02:19:58 AM 34.3536 -115.7594 293° West 419 482 40,000  Level Los Angeles Center
Thu 02:20:59 AM 34.4008 -115.8986 292° West 423 487 40,000  Level Los Angeles Center
Thu 02:22:00 AM 34.4447 -116.0297 292° West 422 486 40,000  Level Los Angeles Center
Thu 02:23:00 AM 34.4894 -116.1614 292° West 424 488 40,000  Level Los Angeles Center
Thu 02:24:01 AM 34.5339 -116.2933 292° West 424 488 40,000  Level Los Angeles Center
Thu 02:25:02 AM 34.5775 -116.4225 292° West 418 481 40,000  Level Los Angeles Center
Thu 02:26:02 AM 34.6211 -116.5519 292° West 415 478 40,000  Level Los Angeles Center
Thu 02:27:03 AM 34.6647 -116.6819 292° West 416 479 40,000  Level Los Angeles Center
Thu 02:28:04 AM 34.7069 -116.8111 292° West 412 474 40,000  Level Los Angeles Center
Thu 02:29:05 AM 34.7494 -116.9397 292° West 412 474 40,000  Level Los Angeles Center
Thu 02:30:05 AM 34.7917 -117.0689 292° West 411 473 40,000  Level Los Angeles Center
Thu 02:31:06 AM 34.8339 -117.1972 292° West 409 471 40,000  Level Los Angeles Center
Thu 02:32:07 AM 34.8764 -117.3269 292° West 410 472 40,000  Level Los Angeles Center
Thu 02:33:07 AM 34.9178 -117.4592 291° West 414 476 40,000  Level Los Angeles Center
Thu 02:34:08 AM 34.9622 -117.5936 292° West 419 482 40,000  Level Los Angeles Center
Thu 02:35:08 AM 35.0058 -117.7297 291° West 420 483 40,000  Level Los Angeles Center
Thu 02:36:09 AM 35.0494 -117.8633 292° West 421 484 40,000  Level Los Angeles Center
Thu 02:37:22 AM 35.1000 -118.0242 291° West 421 484 40,000  Level Los Angeles Center
Thu 02:38:22 AM 35.1419 -118.1531 292° West 412 474 40,000  Level Los Angeles Center
Thu 02:39:23 AM 35.1844 -118.2872 291° West 417 480 40,000  Level Los Angeles Center
Thu 02:40:23 AM 35.2264 -118.4208 291° West 418 481 40,000  Level Los Angeles Center
Thu 02:41:24 AM 35.2689 -118.5525 292° West 424 488 40,000  Level Los Angeles Center
Thu 02:42:24 AM 35.3092 -118.6864 290° West 421 484 40,000  Level Los Angeles Center
Thu 02:43:25 AM 35.3583 -118.8472 291° West 420 483 40,000  Level Los Angeles Center
Thu 02:44:26 AM 35.4014 -118.9822 291° West 422 486 40,000  Level Los Angeles Center
Thu 02:45:26 AM 35.4425 -119.1178 290° West 423 487 40,000  Level Los Angeles Center
Thu 02:46:27 AM 35.4836 -119.2503 291° West 418 481 40,000  Level Los Angeles Center
Thu 02:47:27 AM 35.5242 -119.3844 290° West 418 481 40,000  Level Los Angeles Center
Thu 02:48:18 AM 35.5544 -119.4894 290° West 419 482 40,000  Level Oakland Center
Thu 02:49:19 AM 35.5944 -119.6222 290° West 417 480 40,000  Level Oakland Center
Thu 02:50:19 AM 35.6344 -119.7556 290° West 418 481 40,000  Level Oakland Center
Thu 02:51:20 AM 35.6744 -119.8881 290° West 418 481 40,000  Level Oakland Center
Thu 02:52:21 AM 35.7131 -120.0169 290° West 410 472 40,000  Level Oakland Center
Thu 02:53:21 AM 35.7506 -120.1431 290° West 400 460 40,000  Level Oakland Center
Thu 02:54:22 AM 35.7878 -120.2697 290° West 398 458 40,000  Level Oakland Center
Thu 02:55:22 AM 35.8319 -120.4211 290° West 397 457 40,000  Level Oakland Center
Thu 02:56:23 AM 35.8683 -120.5467 290° West 394 453 40,000  Level Oakland Center
Thu 02:57:23 AM 35.9058 -120.6731 290° West 396 456 40,000  Level Oakland Center
Thu 02:58:24 AM 35.9422 -120.8017 289° West 399 459 40,000  Level Oakland Center
Thu 02:59:24 AM 35.9797 -120.9308 290° West 401 461 40,000  Level Oakland Center
Thu 03:00:25 AM 36.0167 -121.0617 289° West 406 467 40,000  Level Oakland Center
Thu 03:01:25 AM 36.0544 -121.1925 290° West 406 467 40,000  Level Oakland Center
Thu 03:02:26 AM 36.0925 -121.3244 290° West 409 471 40,000  Level Oakland Center
Thu 03:03:26 AM 36.1306 -121.4575 290° West 412 474 40,000  Level Oakland Center
Thu 03:04:27 AM 36.1675 -121.5917 289° West 414 476 40,000 -198 Level Oakland Center
Thu 03:05:27 AM 36.2422 -121.6931 312° West 415 478 39,600 -1,339 Descending Oakland Center
Thu 03:06:28 AM 36.3450 -121.7542 334° Northwest 409 471 37,300 -1,785 Descending Oakland Center
Thu 03:07:28 AM 36.4550 -121.8108 337° Northwest 400 460 36,000 -1,150 Descending Oakland Center
Thu 03:08:28 AM 36.5486 -121.8611 337° Northwest 366 421 35,000 -1,339 Descending Oakland Center
Thu 03:09:29 AM 36.6386 -121.9089 337° Northwest 355 409 33,300 -1,388 Descending Oakland Center
Thu 03:10:29 AM 36.7256 -121.9525 338° Northwest 339 390 32,200 -1,140 Descending Oakland Center
Thu 03:11:30 AM 36.7881 -122.0200 319° Northwest 316 364 31,000 -1,339 Descending Oakland Center
Thu 03:12:30 AM 36.7414 -122.1114 238° Southwest 340 391 29,500 -1,500 Descending Oakland Center
Thu 03:13:30 AM 36.6531 -122.0944 171° South 323 372 28,000 -1,240 Descending Oakland Center
Thu 03:14:31 AM 36.5650 -122.0694 167° South 323 372 27,000 -496 Descending Oakland Center
Thu 03:15:31 AM 36.5111 -121.9975 133° Southeast 313 360 27,000  Level Oakland Center
Thu 03:16:32 AM 36.5536 -121.9219 55° Northeast 291 335 27,000  Level Oakland Center
Thu 03:17:32 AM 36.6289 -121.9336 353° North 281 323 27,000 -600 Level Oakland Center
Thu 03:18:32 AM 36.7036 -121.9536 348° North 276 318 25,800 -1,190 Descending Oakland Center
Thu 03:19:33 AM 36.7758 -121.9819 343° North 276 318 24,600 -1,240 Descending Oakland Center
Thu 03:20:33 AM 36.7636 -122.0742 261° West 291 335 23,300 -1,300 Descending Oakland Center
Thu 03:21:33 AM 36.6861 -122.0714 178° South 287 330 22,000 -645 Descending Oakland Center
Thu 03:22:34 AM 36.6089 -122.0489 167° South 284 327 22,000  Level Oakland Center
Thu 03:23:34 AM 36.5314 -122.0278 168° South 284 327 22,000 -400 Level Oakland Center
Thu 03:24:34 AM 36.4603 -121.9922 158° South 281 323 21,200 -992 Descending Oakland Center
Thu 03:25:35 AM 36.4806 -121.9089 73° East 274 315 20,000 -595 Descending Oakland Center
Thu 03:26:35 AM 36.5481 -121.9139 357° North 250 288 20,000  Level Oakland Center
Thu 03:27:35 AM 36.6253 -121.9331 349° North 289 333 20,000 -264 Level Oakland Center
Thu 03:28:06 AM 36.6833 -121.9500 347° North 322 371 19,600 -1,341 Descending Northern Cal TRACON
Thu 03:29:00 AM 36.7667 -121.9667 351° North 312 359 18,100 -1,632 Descending Northern Cal TRACON
Thu 03:30:00 AM 36.8500 -121.9833 351° North 306 352 16,500 -1,438 Descending Northern Cal TRACON
Thu 03:30:36 AM 36.8794 -121.9989 337° Northwest 306 352 15,800 -1,670 Descending Oakland Center
Thu 03:31:37 AM 36.9794 -122.0247 348° North 306 352 13,800 -1,438 Descending Oakland Center
Thu 03:32:37 AM 37.0503 -122.0572 340° North 277 319 12,900 -950 Descending Oakland Center
Thu 03:33:37 AM 37.0989 -122.1231 313° West 258 297 11,900 -1,041 Descending Oakland Center
Thu 03:34:38 AM 37.1467 -122.1822 315° West 244 281 10,800 -1,091 Descending Oakland Center
Thu 03:35:38 AM 37.1942 -122.2428 315° West 243 280 9,700 -950 Descending Oakland Center
Thu 03:36:38 AM 37.2394 -122.3028 313° West 239 275 8,900 -744 Descending Oakland Center
Thu 03:37:39 AM 37.2847 -122.3622 314° West 235 270 8,200 -843 Descending Oakland Center
Thu 03:38:39 AM 37.3311 -122.4208 315° West 237 273 7,200 -750 Descending Oakland Center
Thu 03:39:39 AM 37.3764 -122.4750 316° Northwest 230 265 6,700 -550 Descending Oakland Center
Thu 03:40:39 AM 37.4078 -122.4233 53° Northeast 219 252 6,100 -397 Descending Oakland Center
Thu 03:41:40 AM 37.4028 -122.3486 95° East 215 247 5,900 -99 Descending Oakland Center
Thu 03:42:40 AM 37.4083 -122.2717 85° East 220 253 5,900 -450 Level Oakland Center
Thu 03:43:40 AM 37.4119 -122.1961 87° East 218 251 5,000 -850 Descending Oakland Center
Thu 03:44:40 AM 37.4444 -122.1361 56° Northeast 214 246 4,200 -645 Descending Oakland Center
Thu 03:45:41 AM 37.4914 -122.1133 21° North 201 231 3,700 -595 Descending Oakland Center
Thu 03:46:41 AM 37.5286 -122.1536 319° Northwest 185 213 3,000 -700 Descending Oakland Center
Thu 03:47:41 AM 37.5497 -122.2028 298° West 170 196 2,300 -650 Descending Oakland Center
Thu 03:48:41 AM 37.5689 -122.2517 296° West 162 186 1,700 -645 Descending Oakland Center
Thu 03:49:42 AM 37.5881 -122.2972 298° West 155 178 1,000 -645 Descending Oakland Center
Thu 03:50:42 AM 37.6031 -122.3331 298° West 136 157 400 -600 Descending Oakland Center
Thu 03:53:00 AM 37.6167 -122.3667 322° Northwest  Level FlightAware Approximate

Login

Don't have an account? Register now (free) for customized features, flight alerts, and more!